< < Back
Terminal Aerodrome Forecast


Current Version              Previous Versions:   1  2  3  4  5  6  7  8  9  

Terminal Aerodrome Forecast

497
FTUS44 KBMX 140534
TAFTCL
TAF
KTCL 140534Z 1406/1506 35005KT P6SM SKC
     FM141400 13007KT P6SM BKN250
     FM141700 17008KT P6SM OVC100=

Latest METAR

606
SAUS70 KWBC 140600 RRO
MTRTCL
METAR KTCL 140553Z AUTO 06006KT 10SM CLR 01/M14 A3037 RMK AO2 SLP285
T00061139 10056 20006 400891006 58016


USA.gov is the U.S. government's official web portal to all federal, state and local government web resources and services.